Godman Army Air Field
KFTK : now visible

Airfield :











YOU CAN JOIN US ON...

 
LOGIN :

Register | Disclaimer

   EN    FR    IT 

 









Legend :    VFR   Marginal VFR   IFR   Intensive IFR   Very Intensive IFR
Visi :
Ceiling :
>= 8 km
>= 3000ft
5 to 8 km
1000 to 3000 ft
1500m to 5 km
500 to 1000 ft
800 to 1500m
200 to 500 ft
< 800m
< 200 ft
Symbols :   Thunderstorms  Fog  Heavy snow  Heavy precipitations  Wind > 20 kt






- Airport Elevation : 756 ft


KFTK - Godman Army Air Field

CURRENT METAR :
  • 191356Z AUTO 05006KT 10SM CLR 22/22 A3012 RMK AO2 SLP197 T02200218

EXPIRED METARs :
  • 191256Z AUTO 04003KT 10SM FEW210 FEW240 21/21 A3011 RMK AO2 SLP193 T02090207
  • 191156Z AUTO 00000KT 6SM BR SCT001 20/20 A3011 RMK AO2 SLP193 T01970195 10202 20187 53005

Expired Forecast.
KZID FIR / North America



MET'MAP, your aeronautical weather chart ! - Copyright ORBIFLY December 2007 - Disclaimer

ORBIFLY MET'MAP TEAM :

Programming & Development : Alexandra Zaïnal
Concept & original design : Baudouin d'Aumeries
Assistance for programming : Marc-Olivier Méhu
Technical & hardware support : Manuel Goepfert

Contact : metmap@orbifly.com




SOURCES & CREDITS :

   NOAA       Earth
Advisory